Nearby METAR Reports

 

KSJC - San Jose, California, USA
Distance from station: NE 14km
Actualizado: 01/04/2023 15:53
Muito nublado
Muito nublado
 Vento de calm
Vento: Calmo
Temperatura: 6°C
Ponto de Orvalho: 2°C
Humidade: 76%
Barmetro: 1024.4 hPa
Clouds: Muito nublado
Visibility: 16 km
Cloud details: Few Clouds 122 m
Muito nublado 5182 m
2023/04/01 13:53 KSJC 011353Z 00000KT 10SM FEW004 BKN170 06/02 A3025 RMK AO2 SLP242 FU FEW004 T00560022 $
KNUQ - Moffett Nas/Mtn, California, USA
Distance from station: N 14km
Actualizado: 18/03/2023 19:20
NOT Current
Cu Limpo
Cu Limpo
 Vento de NNE
Vento: NNE 9 km/h
Temperatura: 17°C
Ponto de Orvalho: 11°C
Humidade: 68%
Barmetro: 1016.3 hPa
Clouds: Cu Limpo
Visibility: 16 km
2023/03/18 18:20 KNUQ 181820Z AUTO 03005KT 10SM CLR 17/11 A3001 RMK AO2
 
KPAO - Palo Alto, California, USA
Distance from station: NNW 23km
Actualizado: 01/04/2023 15:47
Few Clouds
Few Clouds
 Vento de varies
Vento: varies 6 km/h
Temperatura: 3°C
Ponto de Orvalho: 2°C
Humidade: 93%
Barmetro: 1024.4 hPa
Clouds: Few Clouds
Visibility: 16 km
Cloud details: Few Clouds 914 m
2023/04/01 13:47 KPAO 011347Z VRB03KT 10SM FEW030 03/02 A3025
KRHV - San Jose/Reid, California, USA
Distance from station: ENE 19km
Actualizado: 01/04/2023 15:55
Few Clouds
Few Clouds
 Vento de calm
Vento: Calmo
Temperatura: 4°C
Ponto de Orvalho: 2°C
Humidade: 87%
Barmetro: 1024.4 hPa
Clouds: Few Clouds
Visibility: 16 km
Cloud details: Few Clouds 610 m
2023/04/01 13:55 KRHV 011355Z 00000KT 10SM FEW020 04/02 A3025
 
KOAK - Oakland, California, USA
Distance from station: NNW 50km
Actualizado: 01/04/2023 15:53
Few Clouds
Few Clouds
 Vento de E
Vento: E 6 km/h
Temperatura: 5°C
Ponto de Orvalho: 3°C
Humidade: 87%
Barmetro: 1024.4 hPa
Clouds: Few Clouds
Visibility: 16 km
Cloud details: Few Clouds 610 m
Few Clouds 3048 m
2023/04/01 13:53 KOAK 011353Z 08003KT 10SM FEW020 FEW100 05/03 A3025 RMK AO2 SLP242 T00500033
KSQL - San Carlos Airpo, California, USA
Distance from station: NW 34km
Actualizado: 01/04/2023 15:55
Cu Limpo
Cu Limpo
 Vento de calm
Vento: Calmo
Temperatura: 4°C
Ponto de Orvalho: 3°C
Humidade: 93%
Barmetro: 1024.4 hPa
Clouds: Cu Limpo
Visibility: 13 km
2023/04/01 13:55 KSQL 011355Z AUTO 00000KT 8SM CLR 04/03 A3025 RMK AO2
 
KSFO - San Francisco, California, USA
Distance from station: NW 49km
Actualizado: 01/04/2023 15:56
Few Clouds
Few Clouds
 Vento de WNW
Vento: WNW 6 km/h
Temperatura: 7°C
Ponto de Orvalho: 4°C
Humidade: 81%
Barmetro: 1024 hPa
Clouds: Few Clouds
Visibility: 16 km
Cloud details: Few Clouds 6096 m
2023/04/01 13:56 KSFO 011356Z 30003KT 10SM FEW200 07/04 A3024 RMK AO2 SLP240 T00720039
KE16 - San Martin, California, USA
Distance from station: ESE 43km
Actualizado: 01/04/2023 15:55
Few Clouds
Few Clouds
 Vento de calm
Vento: Calmo
Temperatura: 4°C
Ponto de Orvalho: 3°C
Humidade: 93%
Barmetro: 1024.7 hPa
Clouds: Few Clouds
Visibility: 16 km
Cloud details: Few Clouds 1097 m
2023/04/01 13:55 KE16 011355Z AUTO 00000KT 10SM FEW036 04/03 A3026 RMK AO2
 
KWVI - Watsonville, California, USA
Distance from station: SSE 44km
Actualizado: 01/04/2023 15:53
Cu Limpo
Cu Limpo
 Vento de NNW
Vento: NNW 7 km/h
Temperatura: 4°C
Wind Chill: 2°C
Ponto de Orvalho: 2°C
Humidade: 87%
Barmetro: 1024 hPa
Clouds: Cu Limpo
Visibility: 16 km
2023/04/01 13:53 KWVI 011353Z AUTO 33004KT 10SM CLR 04/02 A3024 RMK AO2 SLP239 T00390022
KHAF - Half Moon Bay, California, USA
Distance from station: WNW 50km
Actualizado: 01/04/2023 15:55
Cu Limpo
Cu Limpo
 Vento de calm
Vento: Calmo
Temperatura: 3°C
Ponto de Orvalho: 2°C
Humidade: 93%
Barmetro: 1024 hPa
Clouds: Cu Limpo
Visibility: 14 km
2023/04/01 13:55 KHAF 011355Z AUTO 00000KT 9SM CLR 03/02 A3024 RMK AO2
 
KHWD - Hayward, California, USA
Distance from station: N 44km
Actualizado: 01/04/2023 15:54
Cu Limpo
Cu Limpo
 Vento de ENE
Vento: ENE 7 km/h
Temperatura: 6°C
Wind Chill: 4°C
Ponto de Orvalho: 3°C
Humidade: 81%
Barmetro: 1024 hPa
Clouds: Cu Limpo
Visibility: 16 km
2023/04/01 13:54 KHWD 011354Z 06004KT 10SM CLR 06/03 A3024 RMK AO2 SLP251 T00560033
KLVK - Livermore, California, USA
Distance from station: NNE 51km
Actualizado: 01/04/2023 15:53
Cu Limpo
Cu Limpo
 Vento de calm
Vento: Calmo
Temperatura: 4°C
Ponto de Orvalho: 2°C
Humidade: 87%
Barmetro: 1024 hPa
Clouds: Cu Limpo
Visibility: 16 km
2023/04/01 13:53 KLVK 011353Z 00000KT 10SM CLR 04/02 A3024 RMK AO2 SLP239 T00390022